Time;durP1;ratioP1;P1;durP2;ratioP2;P2;SDS_P1;SDS_P2;PMS_P1;PMS_P2;Temp;Humidity;BMP_temperature;BMP_pressure;BME280_temperature;BME280_humidity;BME280_pressure;Samples;Min_cycle;Max_cycle;Signal;HPM_P1;HPM_P2
2023/06/24 00:01:48;;;;;;;16.38;7.30;;;21.70;99.90;;;;;;5030020;28;20061;-60
2023/06/24 00:04:54;;;;;;;18.20;7.70;;;21.80;99.90;;;;;;5030210;28;20100;-63
2023/06/24 00:08:01;;;;;;;20.67;8.63;;;21.80;99.90;;;;;;5030134;28;20048;-61
2023/06/24 00:11:05;;;;;;;21.73;7.88;;;21.90;99.90;;;;;;5030239;28;20041;-63
2023/06/24 00:14:10;;;;;;;16.92;7.13;;;21.90;99.90;;;;;;5029735;28;20614;-63
2023/06/24 00:17:15;;;;;;;17.23;7.13;;;21.90;99.90;;;;;;5030171;28;20048;-57
2023/06/24 00:20:19;;;;;;;21.75;7.63;;;21.90;99.90;;;;;;5030320;28;20045;-62
2023/06/24 00:23:24;;;;;;;19.65;7.82;;;21.90;99.90;;;;;;5029903;28;20047;-64
2023/06/24 00:26:28;;;;;;;18.83;8.02;;;21.80;99.90;;;;;;5029548;28;20040;-60
2023/06/24 00:29:32;;;;;;;20.90;8.30;;;21.80;99.90;;;;;;5029843;28;20037;-62
2023/06/24 00:32:37;;;;;;;12.90;7.25;;;21.70;99.90;;;;;;5028765;28;20431;-57
2023/06/24 00:35:42;;;;;;;18.63;7.68;;;21.60;99.90;;;;;;5028764;28;20049;-57
2023/06/24 00:38:48;;;;;;;17.70;7.72;;;21.60;99.90;;;;;;5029872;28;20407;-62
2023/06/24 00:41:52;;;;;;;21.63;8.38;;;21.50;99.90;;;;;;5028346;28;20404;-59
2023/06/24 00:44:57;;;;;;;15.40;8.02;;;21.30;99.90;;;;;;5028358;28;20049;-57
2023/06/24 00:48:02;;;;;;;17.90;8.75;;;21.20;99.90;;;;;;5029792;28;20396;-62
2023/06/24 00:51:07;;;;;;;26.50;8.25;;;21.10;99.90;;;;;;5029704;28;20049;-58
2023/06/24 00:54:11;;;;;;;17.42;7.82;;;21.10;99.90;;;;;;5029477;28;20045;-57
2023/06/24 00:57:17;;;;;;;15.45;8.10;;;21.00;99.90;;;;;;5028863;28;20044;-63
2023/06/24 01:00:23;;;;;;;16.77;8.63;;;21.00;99.90;;;;;;5029331;28;20040;-57
2023/06/24 01:03:27;;;;;;;15.50;8.45;;;20.80;99.90;;;;;;5029006;28;20052;-58
2023/06/24 01:06:32;;;;;;;16.70;8.77;;;20.70;99.90;;;;;;5028531;28;20074;-57
2023/06/24 01:09:36;;;;;;;21.10;9.35;;;20.70;99.90;;;;;;5032261;28;20399;-57
2023/06/24 01:12:43;;;;;;;16.70;9.38;;;20.70;99.90;;;;;;5032215;28;20045;-64
2023/06/24 01:15:48;;;;;;;24.13;9.32;;;20.70;99.90;;;;;;5032804;28;20041;-57
2023/06/24 01:19:00;;;;;;;18.58;8.60;;;20.70;99.90;;;;;;5033579;28;20511;-57
2023/06/24 01:22:21;;;;;;;17.23;8.55;;;20.80;99.90;;;;;;5033447;28;20052;-57
2023/06/24 01:25:52;;;;;;;19.27;9.57;;;20.80;99.90;;;;;;5033335;28;20048;-60
2023/06/24 01:29:23;;;;;;;23.60;8.75;;;20.70;99.90;;;;;;5033066;28;20936;-60
2023/06/24 01:32:38;;;;;;;15.82;9.52;;;20.70;99.90;;;;;;5032012;28;20045;-57
2023/06/24 01:35:44;;;;;;;18.00;9.98;;;20.60;99.90;;;;;;5032167;28;20060;-59
2023/06/24 01:38:55;;;;;;;17.90;9.13;;;20.50;99.90;;;;;;5031907;28;20403;-58
2023/06/24 01:42:06;;;;;;;15.93;8.77;;;20.50;99.90;;;;;;5032556;28;20519;-57
2023/06/24 01:45:16;;;;;;;19.27;9.00;;;20.40;99.90;;;;;;5031490;28;20542;-58
2023/06/24 01:48:27;;;;;;;20.60;8.65;;;20.40;99.90;;;;;;5032115;28;20036;-58
2023/06/24 01:51:33;;;;;;;19.00;9.57;;;20.30;99.90;;;;;;5032636;28;20049;-58
2023/06/24 01:54:39;;;;;;;25.13;10.27;;;20.30;99.90;;;;;;5032448;28;20041;-57
2023/06/24 01:57:46;;;;;;;21.48;10.60;;;20.20;99.90;;;;;;5032244;28;20053;-58
2023/06/24 02:00:51;;;;;;;18.45;8.38;;;20.10;99.90;;;;;;5031900;28;20056;-59
2023/06/24 02:03:57;;;;;;;14.13;9.13;;;20.10;99.90;;;;;;5032211;28;20510;-57
2023/06/24 02:07:03;;;;;;;21.85;10.77;;;20.10;99.90;;;;;;5032287;28;20483;-62
2023/06/24 02:10:08;;;;;;;19.77;9.30;;;20.10;99.90;;;;;;5031328;28;20056;-57
2023/06/24 02:13:13;;;;;;;21.08;11.27;;;20.00;99.90;;;;;;5032106;28;20041;-58
2023/06/24 02:16:17;;;;;;;18.55;10.63;;;19.90;99.90;;;;;;5032225;28;20048;-57
2023/06/24 02:19:22;;;;;;;20.30;10.80;;;19.80;99.90;;;;;;5031062;28;20515;-59
2023/06/24 02:22:28;;;;;;;27.00;12.15;;;19.80;99.90;;;;;;5031865;28;20049;-60
2023/06/24 02:25:32;;;;;;;21.27;10.40;;;19.70;99.90;;;;;;5031734;28;20113;-61
2023/06/24 02:28:38;;;;;;;16.35;10.65;;;19.60;99.90;;;;;;5032139;28;20515;-60
2023/06/24 02:31:42;;;;;;;26.20;11.25;;;19.60;99.90;;;;;;5031926;28;20048;-59
2023/06/24 02:34:46;;;;;;;26.58;11.90;;;19.60;99.90;;;;;;5031501;28;20037;-57
2023/06/24 02:37:50;;;;;;;25.40;11.95;;;19.60;99.90;;;;;;5030887;28;20045;-61
2023/06/24 02:40:56;;;;;;;20.52;10.85;;;19.50;99.90;;;;;;5031751;28;20064;-59
2023/06/24 02:44:00;;;;;;;16.92;10.65;;;19.50;99.90;;;;;;5030654;28;20504;-57
2023/06/24 02:47:07;;;;;;;19.70;11.18;;;19.50;99.90;;;;;;5030617;28;20049;-58
2023/06/24 02:50:12;;;;;;;20.05;11.05;;;19.30;99.90;;;;;;5032005;28;20056;-61
2023/06/24 02:53:16;;;;;;;24.80;11.48;;;19.30;99.90;;;;;;5030769;28;20048;-62
2023/06/24 02:56:22;;;;;;;19.80;10.70;;;19.40;99.90;;;;;;5031027;28;20053;-60
2023/06/24 02:59:27;;;;;;;19.10;10.80;;;19.40;99.90;;;;;;5030992;28;20045;-62
2023/06/24 03:02:33;;;;;;;20.25;10.80;;;19.40;99.90;;;;;;5030622;28;20049;-61
2023/06/24 03:05:38;;;;;;;19.58;10.70;;;19.40;99.90;;;;;;5030376;28;20113;-63
2023/06/24 03:08:42;;;;;;;14.15;10.18;;;19.30;99.90;;;;;;5030768;28;20519;-63
2023/06/24 03:11:47;;;;;;;23.02;11.30;;;19.30;99.90;;;;;;5030392;28;20056;-61
2023/06/24 03:15:00;;;;;;;21.42;11.07;;;19.30;99.90;;;;;;5030090;28;20053;-62
2023/06/24 03:18:05;;;;;;;18.45;10.90;;;19.30;99.90;;;;;;5030665;28;20037;-61
2023/06/24 03:21:10;;;;;;;23.30;11.48;;;19.30;99.90;;;;;;5030623;28;20057;-62
2023/06/24 03:24:14;;;;;;;18.98;10.32;;;19.20;99.90;;;;;;5030632;28;20064;-57
2023/06/24 03:27:20;;;;;;;18.35;11.05;;;19.20;99.90;;;;;;5030059;28;20053;-59
2023/06/24 03:30:25;;;;;;;17.08;11.13;;;19.10;99.90;;;;;;5029896;28;20117;-57
2023/06/24 03:33:29;;;;;;;20.17;11.38;;;19.10;99.90;;;;;;5029706;28;20048;-63
2023/06/24 03:36:34;;;;;;;25.67;11.20;;;19.00;99.90;;;;;;5029778;28;20048;-63
2023/06/24 03:39:39;;;;;;;29.60;12.85;;;18.90;99.90;;;;;;5029618;28;20052;-57
2023/06/24 03:42:43;;;;;;;20.17;11.77;;;18.90;99.90;;;;;;5029565;28;20056;-60
2023/06/24 03:45:47;;;;;;;17.50;11.65;;;18.90;99.90;;;;;;5029802;28;20531;-63
2023/06/24 03:48:52;;;;;;;19.52;11.75;;;18.90;99.90;;;;;;5029414;28;20049;-60
2023/06/24 03:51:56;;;;;;;18.25;11.18;;;18.90;99.90;;;;;;5029660;28;20044;-62
2023/06/24 03:55:01;;;;;;;22.40;11.18;;;18.90;99.90;;;;;;5030243;28;20045;-57
2023/06/24 03:58:06;;;;;;;17.85;10.48;;;18.80;99.90;;;;;;5029696;28;20068;-57
2023/06/24 04:01:10;;;;;;;22.58;11.38;;;18.90;99.90;;;;;;5029580;28;20040;-62
2023/06/24 04:04:14;;;;;;;22.00;9.52;;;18.90;99.90;;;;;;5030376;28;20064;-60
2023/06/24 04:07:26;;;;;;;27.45;11.18;;;18.90;99.90;;;;;;5029989;28;20049;-58
2023/06/24 04:10:33;;;;;;;19.52;10.10;;;18.80;99.90;;;;;;5029653;28;20068;-57
2023/06/24 04:13:37;;;;;;;21.75;11.35;;;18.80;99.90;;;;;;5029484;28;20048;-58
2023/06/24 04:16:41;;;;;;;18.63;10.80;;;18.90;99.90;;;;;;5029453;28;20064;-58
2023/06/24 04:19:45;;;;;;;25.52;10.77;;;18.90;99.90;;;;;;5029613;28;20052;-60
2023/06/24 04:22:49;;;;;;;20.67;10.90;;;18.90;99.90;;;;;;5029818;28;20072;-59
2023/06/24 04:25:54;;;;;;;19.60;10.02;;;18.90;99.90;;;;;;5029106;28;20056;-58
2023/06/24 04:28:59;;;;;;;23.20;11.40;;;18.90;99.90;;;;;;5030271;28;20045;-58
2023/06/24 04:32:03;;;;;;;23.85;11.10;;;19.40;99.90;;;;;;5028225;28;20040;-58
2023/06/24 04:35:08;;;;;;;17.00;8.98;;;19.90;99.90;;;;;;5029051;28;20060;-61
2023/06/24 04:38:18;;;;;;;15.48;7.97;;;21.30;99.90;;;;;;5029405;28;20052;-58
2023/06/24 04:41:22;;;;;;;15.27;8.63;;;22.50;99.90;;;;;;5029106;28;20040;-59
2023/06/24 04:44:26;;;;;;;14.52;8.25;;;23.60;99.90;;;;;;5029016;28;20052;-58
2023/06/24 04:47:30;;;;;;;16.80;8.32;;;24.80;99.90;;;;;;5029448;28;20510;-60
2023/06/24 04:50:34;;;;;;;18.23;8.75;;;24.60;99.90;;;;;;5030310;28;20056;-60
2023/06/24 04:53:38;;;;;;;18.55;8.23;;;25.10;99.90;;;;;;5029891;28;20052;-61
2023/06/24 04:56:41;;;;;;;13.30;7.63;;;25.60;99.90;;;;;;5029737;28;20063;-59
2023/06/24 04:59:46;;;;;;;14.98;7.95;;;26.00;99.90;;;;;;5030034;28;20052;-59
2023/06/24 05:02:50;;;;;;;20.60;7.13;;;26.30;99.90;;;;;;5029443;28;20060;-65
2023/06/24 05:05:54;;;;;;;21.50;9.77;;;26.50;99.90;;;;;;5029089;28;20435;-61
2023/06/24 05:08:58;;;;;;;16.05;8.68;;;27.40;99.90;;;;;;5029430;28;20041;-58
2023/06/24 05:12:02;;;;;;;36.13;14.23;;;27.50;99.90;;;;;;5029318;28;20052;-59
2023/06/24 05:15:06;;;;;;;20.48;10.48;;;27.10;99.90;;;;;;5029340;28;20075;-60
2023/06/24 05:18:10;;;;;;;22.00;10.63;;;26.90;99.90;;;;;;5029244;28;20048;-57
2023/06/24 05:21:14;;;;;;;19.50;8.60;;;27.40;99.90;;;;;;5029294;28;20040;-58
2023/06/24 05:24:18;;;;;;;15.23;7.45;;;27.80;99.90;;;;;;5029338;28;20040;-60
2023/06/24 05:27:22;;;;;;;15.57;7.75;;;28.80;99.90;;;;;;5028835;28;20062;-59
2023/06/24 05:30:26;;;;;;;14.30;6.90;;;29.20;99.90;;;;;;5029301;28;20064;-58
2023/06/24 05:33:30;;;;;;;15.80;6.15;;;29.80;99.90;;;;;;5028927;28;20415;-61
2023/06/24 05:36:34;;;;;;;15.65;6.93;;;29.50;99.90;;;;;;5029085;28;20041;-60
2023/06/24 05:39:38;;;;;;;14.32;6.18;;;28.90;99.90;;;;;;5029317;28;20439;-63
2023/06/24 05:42:42;;;;;;;13.50;6.68;;;29.20;99.90;;;;;;5029222;28;20061;-59
2023/06/24 05:45:46;;;;;;;19.60;7.40;;;28.50;99.90;;;;;;5029011;28;20048;-58
2023/06/24 05:48:50;;;;;;;13.35;7.53;;;27.60;99.90;;;;;;5029315;28;20044;-58
2023/06/24 05:51:54;;;;;;;13.18;6.15;;;26.70;99.90;;;;;;5028828;28;20414;-60
2023/06/24 05:54:58;;;;;;;13.18;6.70;;;28.30;99.90;;;;;;5031364;28;20048;-60
2023/06/24 05:58:02;;;;;;;13.27;5.32;;;29.30;99.90;;;;;;5032309;28;20060;-59
2023/06/24 06:01:07;;;;;;;10.73;5.47;;;29.80;99.90;;;;;;5032557;28;20044;-57
2023/06/24 06:04:11;;;;;;;12.55;5.10;;;28.30;99.90;;;;;;5032581;28;20044;-58
2023/06/24 06:07:15;;;;;;;11.18;5.05;;;29.40;99.90;;;;;;5031998;28;20045;-61
2023/06/24 06:10:19;;;;;;;9.50;4.18;;;30.50;99.90;;;;;;5032634;28;20044;-58
2023/06/24 06:13:23;;;;;;;7.90;4.80;;;31.40;99.90;;;;;;5031503;28;20598;-58
2023/06/24 06:16:28;;;;;;;10.95;4.53;;;31.90;99.90;;;;;;5032689;28;20060;-58
2023/06/24 06:19:31;;;;;;;7.95;4.50;;;31.30;99.90;;;;;;5032673;28;20048;-59
2023/06/24 06:22:37;;;;;;;10.30;5.40;;;31.30;99.90;;;;;;5032469;28;20105;-58
2023/06/24 06:25:41;;;;;;;12.50;6.22;;;30.50;99.90;;;;;;5032305;28;20549;-57
2023/06/24 06:28:47;;;;;;;14.90;5.72;;;29.70;99.90;;;;;;5031794;28;20403;-59
2023/06/24 06:31:52;;;;;;;14.30;5.35;;;29.40;99.90;;;;;;5032113;28;20048;-61
2023/06/24 06:34:56;;;;;;;10.18;4.63;;;29.80;99.90;;;;;;5031889;28;20052;-59
2023/06/24 06:38:00;;;;;;;11.65;5.32;;;30.60;99.90;;;;;;5031978;28;20073;-63
2023/06/24 06:41:04;;;;;;;9.70;4.90;;;31.10;99.90;;;;;;5032011;28;20048;-61
2023/06/24 06:44:08;;;;;;;9.98;4.35;;;31.90;99.90;;;;;;5031890;28;20052;-57
2023/06/24 06:47:12;;;;;;;13.02;5.57;;;32.20;99.90;;;;;;5031379;28;20049;-58
2023/06/24 06:50:16;;;;;;;9.07;4.70;;;32.10;99.90;;;;;;5032001;28;20045;-58
2023/06/24 06:53:20;;;;;;;12.00;5.07;;;31.70;99.90;;;;;;5031537;28;20056;-62
2023/06/24 06:56:25;;;;;;;11.98;5.00;;;30.80;99.90;;;;;;5031699;28;20506;-62
2023/06/24 06:59:30;;;;;;;7.05;3.40;;;31.40;99.90;;;;;;5031260;28;20041;-58
2023/06/24 07:02:34;;;;;;;9.02;3.53;;;31.50;97.10;;;;;;5031301;28;20048;-58
2023/06/24 07:05:38;;;;;;;8.60;4.40;;;31.50;97.10;;;;;;5030567;28;20420;-60
2023/06/24 07:08:42;;;;;;;10.65;4.60;;;31.40;99.10;;;;;;5031377;28;20428;-58
2023/06/24 07:11:45;;;;;;;7.80;3.42;;;30.60;99.90;;;;;;5031093;28;20057;-58
2023/06/24 07:14:50;;;;;;;7.28;3.78;;;31.00;96.60;;;;;;5031297;28;20049;-59
2023/06/24 07:17:54;;;;;;;8.27;4.00;;;30.90;99.90;;;;;;5030832;28;20060;-58
2023/06/24 07:21:01;;;;;;;6.20;3.53;;;29.20;99.90;;;;;;5031044;28;20050;-62
2023/06/24 07:24:05;;;;;;;8.38;4.20;;;29.70;98.20;;;;;;5031125;28;20125;-62
2023/06/24 07:27:09;;;;;;;8.35;3.35;;;31.10;97.40;;;;;;5030870;28;20048;-61
2023/06/24 07:30:13;;;;;;;5.47;3.13;;;32.70;96.20;;;;;;5031158;28;20049;-64
2023/06/24 07:33:17;;;;;;;8.57;3.33;;;33.10;95.00;;;;;;5030772;28;20039;-62
2023/06/24 07:36:21;;;;;;;6.40;3.00;;;33.60;94.70;;;;;;5031053;28;20518;-62
2023/06/24 07:39:25;;;;;;;4.93;2.90;;;35.10;93.50;;;;;;5030789;28;20060;-58
2023/06/24 07:42:29;;;;;;;5.45;2.95;;;36.20;91.80;;;;;;5030859;28;20044;-63
2023/06/24 07:45:33;;;;;;;4.40;2.83;;;37.30;89.40;;;;;;5031065;28;20078;-62
2023/06/24 07:48:37;;;;;;;5.53;2.78;;;38.60;87.50;;;;;;5030537;28;20403;-63
2023/06/24 07:51:41;;;;;;;6.47;2.50;;;39.50;84.90;;;;;;5030427;28;20070;-61
2023/06/24 07:54:45;;;;;;;4.65;2.30;;;39.40;83.20;;;;;;5030693;28;20033;-63
2023/06/24 07:57:49;;;;;;;7.68;3.08;;;39.20;81.60;;;;;;5030479;28;20044;-58
2023/06/24 08:00:53;;;;;;;5.50;3.03;;;36.90;89.00;;;;;;5030547;28;20049;-61
2023/06/24 08:03:57;;;;;;;7.10;2.78;;;37.40;89.50;;;;;;5030187;28;20523;-62
2023/06/24 08:07:02;;;;;;;7.53;3.00;;;37.80;87.90;;;;;;5029972;28;20041;-61
2023/06/24 08:10:06;;;;;;;6.63;2.95;;;38.20;87.40;;;;;;5029993;28;20526;-64
2023/06/24 08:13:11;;;;;;;4.47;3.10;;;34.70;87.90;;;;;;5030203;28;20032;-63
2023/06/24 08:16:17;;;;;;;7.35;2.85;;;34.70;89.30;;;;;;5030338;28;20072;-62
2023/06/24 08:19:21;;;;;;;6.53;2.70;;;36.40;88.50;;;;;;5029480;28;20048;-64
2023/06/24 08:22:24;;;;;;;4.85;2.72;;;38.50;78.90;;;;;;5029686;28;20045;-59
2023/06/24 08:25:28;;;;;;;9.48;2.90;;;39.20;76.60;;;;;;5030076;28;20048;-61
2023/06/24 08:28:33;;;;;;;4.22;2.58;;;38.80;75.00;;;;;;5029799;28;20064;-64
2023/06/24 08:31:36;;;;;;;5.63;2.90;;;38.80;77.10;;;;;;5029925;28;20407;-63
2023/06/24 08:34:40;;;;;;;7.97;2.70;;;39.30;74.00;;;;;;5029719;28;20048;-61
2023/06/24 08:37:44;;;;;;;12.68;3.25;;;39.70;74.90;;;;;;5029669;28;20041;-59
2023/06/24 08:40:49;;;;;;;7.85;2.45;;;39.70;73.40;;;;;;5030035;28;20045;-60
2023/06/24 08:43:54;;;;;;;6.68;2.78;;;38.60;73.20;;;;;;5029674;28;20048;-61
2023/06/24 08:46:58;;;;;;;6.85;2.38;;;38.10;73.80;;;;;;5028712;28;20048;-62
2023/06/24 08:50:04;;;;;;;6.30;2.60;;;37.60;74.20;;;;;;5029619;28;20068;-62
2023/06/24 08:53:09;;;;;;;4.65;2.60;;;37.90;75.10;;;;;;5029234;28;20048;-59
2023/06/24 08:56:14;;;;;;;12.07;3.22;;;39.40;72.80;;;;;;5029881;28;20048;-58
2023/06/24 08:59:20;;;;;;;5.63;2.50;;;39.10;69.80;;;;;;5029580;28;20041;-61
2023/06/24 09:02:24;;;;;;;5.57;2.25;;;40.20;71.10;;;;;;5029346;28;20057;-64
2023/06/24 09:05:28;;;;;;;6.20;2.63;;;41.20;69.70;;;;;;5029872;28;20045;-63
2023/06/24 09:08:35;;;;;;;6.50;2.28;;;42.10;69.40;;;;;;5029864;28;20246;-59
2023/06/24 09:11:39;;;;;;;2.72;2.10;;;43.50;68.80;;;;;;5029518;28;20049;-61
2023/06/24 09:14:48;;;;;;;3.83;1.85;;;44.70;66.80;;;;;;5029391;28;20534;-60
2023/06/24 09:17:52;;;;;;;3.53;1.83;;;45.30;65.20;;;;;;5029576;28;20044;-63
2023/06/24 09:20:56;;;;;;;3.97;2.10;;;45.70;63.40;;;;;;5029025;28;20044;-65
2023/06/24 09:24:00;;;;;;;3.42;1.73;;;45.80;62.90;;;;;;5029433;28;20048;-61
2023/06/24 09:27:05;;;;;;;3.05;2.00;;;46.80;61.00;;;;;;5029470;28;20040;-60
2023/06/24 09:30:20;;;;;;;2.75;1.40;;;47.00;60.50;;;;;;5032133;28;20037;-61
2023/06/24 09:33:24;;;;;;;2.20;1.48;;;45.90;57.80;;;;;;5032858;28;20037;-64
2023/06/24 09:36:28;;;;;;;2.30;1.65;;;46.20;58.60;;;;;;5033525;28;20049;-64
2023/06/24 09:39:38;;;;;;;3.53;1.85;;;46.70;58.10;;;;;;5033321;28;20408;-59
2023/06/24 09:42:49;;;;;;;1.98;1.48;;;46.00;58.00;;;;;;5033061;28;20503;-64
2023/06/24 09:45:53;;;;;;;5.82;1.95;;;45.50;59.40;;;;;;5033167;28;20048;-64
2023/06/24 09:48:57;;;;;;;3.35;1.90;;;47.10;58.60;;;;;;5033505;28;20052;-61
2023/06/24 09:52:04;;;;;;;7.97;1.90;;;47.90;58.00;;;;;;5032933;28;20045;-62
2023/06/24 09:55:10;;;;;;;4.80;1.88;;;48.00;58.00;;;;;;5032613;28;20040;-63
2023/06/24 09:58:16;;;;;;;2.97;1.85;;;47.90;56.40;;;;;;5033039;28;20052;-61
2023/06/24 10:01:20;;;;;;;4.30;1.95;;;47.60;56.30;;;;;;5032468;28;20052;-63
2023/06/24 10:04:26;;;;;;;3.75;1.88;;;45.70;57.10;;;;;;5032833;28;20052;-61
2023/06/24 10:07:31;;;;;;;3.67;2.17;;;44.90;58.50;;;;;;5032719;28;20052;-65
2023/06/24 10:10:35;;;;;;;8.02;1.98;;;44.90;57.60;;;;;;5032671;28;20040;-63
2023/06/24 10:13:39;;;;;;;3.88;2.00;;;43.00;58.80;;;;;;5032766;28;20044;-63
2023/06/24 10:16:44;;;;;;;3.00;1.63;;;42.50;59.50;;;;;;5032591;28;20068;-64
2023/06/24 10:19:48;;;;;;;5.47;2.00;;;41.60;60.60;;;;;;5031954;28;20040;-63
2023/06/24 10:22:52;;;;;;;3.20;1.85;;;43.30;61.10;;;;;;5032214;28;20117;-62
2023/06/24 10:25:57;;;;;;;5.25;1.65;;;45.60;57.90;;;;;;5032056;28;20064;-58
2023/06/24 10:29:06;;;;;;;4.75;2.17;;;46.20;57.70;;;;;;5032185;28;20412;-63
2023/06/24 10:32:11;;;;;;;2.85;1.60;;;45.80;58.20;;;;;;5031827;28;20044;-61
2023/06/24 10:35:27;;;;;;;2.50;1.75;;;45.00;57.00;;;;;;5031747;28;20522;-62
2023/06/24 10:38:31;;;;;;;5.88;2.25;;;41.00;58.40;;;;;;5032401;28;20048;-60
2023/06/24 10:41:35;;;;;;;8.63;1.85;;;41.00;60.90;;;;;;5030668;28;20064;-58
2023/06/24 10:44:49;;;;;;;3.35;1.80;;;42.70;58.80;;;;;;5038335;22;20060;-84
2023/06/24 10:47:56;;;;;;;3.75;1.85;;;43.80;59.90;;;;;;5031957;28;20056;-87
2023/06/24 10:51:00;;;;;;;3.85;1.70;;;44.50;59.70;;;;;;5019820;28;20044;-84
2023/06/24 10:54:04;;;;;;;7.32;2.25;;;42.10;59.40;;;;;;5031526;28;20033;-82
2023/06/24 10:57:10;;;;;;;7.53;2.08;;;41.80;59.30;;;;;;5032805;28;20053;-79
2023/06/24 11:00:15;;;;;;;3.50;2.05;;;41.80;60.30;;;;;;5032785;28;20121;-83
2023/06/24 11:03:20;;;;;;;5.60;1.88;;;40.30;59.90;;;;;;5032029;28;20045;-85
2023/06/24 11:06:24;;;;;;;4.40;1.80;;;39.90;59.40;;;;;;5034181;28;20048;-86
2023/06/24 11:09:28;;;;;;;6.32;2.03;;;39.30;59.50;;;;;;5032619;28;20040;-83
2023/06/24 11:12:35;;;;;;;4.72;1.88;;;39.30;63.40;;;;;;5032783;28;20036;-85
2023/06/24 11:15:43;;;;;;;2.88;1.60;;;38.30;61.80;;;;;;5033965;28;20491;-85
2023/06/24 11:18:47;;;;;;;3.05;1.77;;;39.10;61.70;;;;;;5031860;28;20044;-87
2023/06/24 11:21:51;;;;;;;3.80;1.92;;;37.70;62.00;;;;;;5030268;28;20053;-84
2023/06/24 11:24:56;;;;;;;5.95;2.10;;;37.00;63.20;;;;;;5032302;28;20056;-84
2023/06/24 11:27:59;;;;;;;4.30;2.03;;;37.20;63.80;;;;;;5044510;28;20044;-85
2023/06/24 11:31:10;;;;;;;2.60;1.70;;;38.00;63.40;;;;;;5032875;28;20045;-88
2023/06/24 11:34:14;;;;;;;6.47;2.30;;;38.40;63.40;;;;;;5032161;28;20044;-89
2023/06/24 11:37:18;;;;;;;6.43;1.90;;;38.90;63.20;;;;;;5031685;28;20111;-84
2023/06/24 11:40:23;;;;;;;7.30;2.35;;;38.30;63.10;;;;;;5031673;28;20045;-85
2023/06/24 11:43:27;;;;;;;11.02;2.00;;;36.90;62.90;;;;;;5031006;28;20048;-84
2023/06/24 11:46:35;;;;;;;3.85;2.13;;;36.40;65.10;;;;;;5030816;28;20052;-85
2023/06/24 11:49:53;;;;;;;3.33;2.10;;;35.60;64.50;;;;;;5031591;28;20037;-88
2023/06/24 11:52:59;;;;;;;5.88;1.92;;;37.10;67.50;;;;;;5030888;28;20041;-83
2023/06/24 11:56:03;;;;;;;3.63;2.03;;;37.40;64.40;;;;;;5031504;28;20056;-88
2023/06/24 11:59:17;;;;;;;3.20;1.80;;;37.00;65.50;;;;;;5031473;28;20048;-88
2023/06/24 12:02:21;;;;;;;4.25;2.13;;;37.30;65.80;;;;;;5029672;28;20049;-85
2023/06/24 12:05:28;;;;;;;5.45;1.73;;;37.50;65.50;;;;;;5031017;28;20044;-87
2023/06/24 12:08:32;;;;;;;2.95;1.85;;;37.60;65.50;;;;;;5032318;28;20044;-84
2023/06/24 12:11:37;;;;;;;6.10;2.13;;;37.90;65.70;;;;;;5032591;28;20048;-81
2023/06/24 12:14:41;;;;;;;4.25;2.00;;;36.80;66.20;;;;;;5031107;28;20053;-83
2023/06/24 12:17:45;;;;;;;6.13;2.15;;;36.00;66.30;;;;;;5033646;28;20053;-85
2023/06/24 12:20:49;;;;;;;6.20;2.08;;;36.50;67.30;;;;;;5035020;28;20053;-83
2023/06/24 12:23:53;;;;;;;6.38;2.00;;;36.90;66.40;;;;;;5044798;28;20048;-89
2023/06/24 12:26:57;;;;;;;3.03;1.70;;;37.00;66.10;;;;;;5033716;28;20045;-88
2023/06/24 12:30:02;;;;;;;2.80;1.92;;;37.20;64.80;;;;;;5033355;28;20033;-86
2023/06/24 12:33:08;;;;;;;9.10;1.90;;;36.90;66.80;;;;;;5030555;28;20218;-87
2023/06/24 12:36:12;;;;;;;4.82;1.60;;;36.60;65.30;;;;;;5031873;28;20046;-83
2023/06/24 12:39:16;;;;;;;4.13;2.00;;;36.60;66.50;;;;;;5031512;28;20052;-82
2023/06/24 12:42:20;;;;;;;5.80;1.90;;;36.30;66.20;;;;;;5030610;28;20052;-88
2023/06/24 12:45:24;;;;;;;4.20;1.80;;;36.70;65.10;;;;;;5031929;28;20056;-84
2023/06/24 12:48:28;;;;;;;3.42;1.90;;;36.70;66.30;;;;;;5031991;28;20049;-85
2023/06/24 12:51:33;;;;;;;5.10;1.92;;;36.70;66.30;;;;;;5031853;28;20068;-87
2023/06/24 12:54:37;;;;;;;2.70;1.92;;;36.80;66.10;;;;;;5031636;28;20519;-84
2023/06/24 12:57:41;;;;;;;5.35;1.73;;;37.10;67.50;;;;;;5033163;28;20032;-89
2023/06/24 13:00:44;;;;;;;6.05;1.80;;;36.70;67.80;;;;;;5036199;28;20052;-85
2023/06/24 13:03:49;;;;;;;2.35;1.50;;;37.00;66.30;;;;;;5044271;28;20049;-85
2023/06/24 13:06:53;;;;;;;3.97;1.60;;;37.00;65.10;;;;;;5037333;28;20048;-86
2023/06/24 13:09:59;;;;;;;3.70;1.83;;;37.00;65.90;;;;;;5027731;28;20208;-91
2023/06/24 13:13:02;;;;;;;3.75;1.70;;;37.10;65.60;;;;;;5034117;28;20051;-83
2023/06/24 13:16:07;;;;;;;2.33;1.45;;;36.40;66.90;;;;;;5034717;28;20052;-83
2023/06/24 13:19:11;;;;;;;3.45;1.80;;;36.00;67.50;;;;;;5037077;28;20061;-79
2023/06/24 13:22:15;;;;;;;2.50;1.40;;;35.80;67.10;;;;;;5034945;28;20048;-83
2023/06/24 13:25:18;;;;;;;5.85;1.30;;;35.50;65.90;;;;;;5036059;28;20068;-88
2023/06/24 13:28:22;;;;;;;10.43;2.40;;;35.80;66.50;;;;;;5037280;28;20052;-85
2023/06/24 13:31:26;;;;;;;2.10;1.35;;;35.90;65.40;;;;;;5025874;28;20048;-82
2023/06/24 13:34:31;;;;;;;1.73;1.17;;;35.30;67.40;;;;;;5034656;28;20045;-84
2023/06/24 13:37:35;;;;;;;2.28;1.38;;;35.00;66.30;;;;;;5037375;28;20049;-85
2023/06/24 13:40:39;;;;;;;4.47;1.60;;;35.00;66.20;;;;;;5034871;28;20052;-83
2023/06/24 13:43:43;;;;;;;4.25;1.50;;;35.00;67.60;;;;;;5047109;28;20048;-88
2023/06/24 13:46:46;;;;;;;4.45;1.83;;;35.20;68.00;;;;;;5046558;28;20064;-85
2023/06/24 13:49:50;;;;;;;2.42;1.13;;;35.00;68.40;;;;;;5035328;28;20554;-85
2023/06/24 13:52:55;;;;;;;1.90;1.30;;;34.70;66.20;;;;;;5033871;28;20105;-81
2023/06/24 13:55:59;;;;;;;3.97;1.30;;;34.10;66.80;;;;;;5034488;28;20048;-83
2023/06/24 13:59:03;;;;;;;2.42;1.45;;;34.00;66.50;;;;;;5034768;28;20053;-87
2023/06/24 14:02:08;;;;;;;5.10;1.30;;;33.80;67.00;;;;;;5033699;28;20510;-84
2023/06/24 14:05:13;;;;;;;4.00;1.30;;;33.90;68.40;;;;;;5033240;28;20048;-83
2023/06/24 14:08:16;;;;;;;4.68;1.33;;;33.80;67.10;;;;;;5034030;28;20057;-81
2023/06/24 14:11:21;;;;;;;1.50;1.02;;;33.80;66.80;;;;;;5032016;28;20045;-82
2023/06/24 14:14:25;;;;;;;8.27;1.92;;;33.40;65.90;;;;;;5033653;28;20044;-84
2023/06/24 14:17:29;;;;;;;4.47;1.15;;;33.20;66.10;;;;;;5032827;28;20045;-87
2023/06/24 14:20:33;;;;;;;3.58;1.02;;;32.60;68.60;;;;;;5033957;28;20037;-90
2023/06/24 14:23:37;;;;;;;4.25;0.90;;;32.80;69.40;;;;;;5033290;28;20060;-84
2023/06/24 14:26:41;;;;;;;3.75;1.23;;;32.90;69.60;;;;;;5033235;28;20052;-82
2023/06/24 14:29:45;;;;;;;2.88;1.10;;;32.80;68.50;;;;;;5033539;28;20056;-83
2023/06/24 14:32:49;;;;;;;3.47;1.05;;;33.00;69.20;;;;;;5032554;28;20052;-83
2023/06/24 14:35:54;;;;;;;2.78;1.08;;;33.10;68.70;;;;;;5033050;28;20044;-84
2023/06/24 14:38:57;;;;;;;3.00;1.25;;;33.00;67.70;;;;;;5033429;28;20036;-80
2023/06/24 14:42:01;;;;;;;5.25;1.10;;;33.10;68.10;;;;;;5032941;28;20120;-85
2023/06/24 14:45:05;;;;;;;3.72;1.05;;;32.90;67.10;;;;;;5033363;28;20052;-81
2023/06/24 14:48:09;;;;;;;2.33;0.90;;;32.80;68.30;;;;;;5032866;28;20041;-82
2023/06/24 14:51:14;;;;;;;2.03;1.02;;;32.70;68.70;;;;;;5032966;28;20490;-85
2023/06/24 14:54:18;;;;;;;1.55;0.90;;;32.60;70.20;;;;;;5032186;28;20064;-80
2023/06/24 14:57:25;;;;;;;1.85;0.77;;;32.40;68.90;;;;;;5032539;28;20499;-81
2023/06/24 15:00:29;;;;;;;2.95;1.10;;;32.40;69.10;;;;;;5032910;28;20048;-84
2023/06/24 15:03:33;;;;;;;4.38;0.90;;;32.30;68.80;;;;;;5031676;28;20044;-81
2023/06/24 15:06:37;;;;;;;2.45;0.60;;;31.60;67.40;;;;;;5019974;28;20519;-86
2023/06/24 15:09:41;;;;;;;0.90;0.73;;;31.00;68.60;;;;;;5032381;28;20044;-83
2023/06/24 15:12:45;;;;;;;1.55;0.90;;;30.80;69.60;;;;;;5030958;28;20475;-86
2023/06/24 15:15:51;;;;;;;2.13;0.90;;;30.50;69.30;;;;;;5031479;28;20048;-83
2023/06/24 15:18:55;;;;;;;12.30;1.13;;;30.60;71.10;;;;;;5032440;28;20045;-82
2023/06/24 15:21:59;;;;;;;2.97;0.52;;;30.60;71.50;;;;;;5031816;28;20044;-82
2023/06/24 15:25:07;;;;;;;1.40;0.90;;;30.80;69.80;;;;;;5030977;28;20052;-81
2023/06/24 15:28:11;;;;;;;1.25;0.50;;;30.70;69.10;;;;;;5031493;28;20428;-81
2023/06/24 15:31:15;;;;;;;1.73;0.60;;;30.70;70.30;;;;;;5030435;28;20061;-81
2023/06/24 15:34:19;;;;;;;1.95;0.82;;;30.70;70.10;;;;;;5031594;28;20044;-81
2023/06/24 15:37:23;;;;;;;0.75;0.60;;;30.70;69.20;;;;;;5031715;28;20053;-81
2023/06/24 15:40:27;;;;;;;1.00;0.60;;;30.60;69.30;;;;;;5031773;28;20044;-79
2023/06/24 15:43:31;;;;;;;2.92;0.93;;;30.60;69.40;;;;;;5030751;28;20048;-81
2023/06/24 15:46:36;;;;;;;1.63;0.73;;;30.60;70.00;;;;;;5019170;28;20048;-78
2023/06/24 15:49:40;;;;;;;1.10;0.73;;;30.50;70.10;;;;;;5031545;28;20049;-79
2023/06/24 15:52:44;;;;;;;3.70;0.88;;;30.40;71.90;;;;;;5030760;28;20049;-82
2023/06/24 15:55:48;;;;;;;1.48;0.90;;;30.30;72.10;;;;;;5031373;28;20044;-82